Time;durP1;ratioP1;P1;durP2;ratioP2;P2;SDS_P1;SDS_P2;PMS_P1;PMS_P2;Temp;Humidity;BMP_temperature;BMP_pressure;BME280_temperature;BME280_humidity;BME280_pressure;Samples;Min_cycle;Max_cycle;Signal;HPM_P1;HPM_P2
2022/09/26 00:00:00;;;;;;;;;;;11.30;99.90;;;;;;5024517;28;20415;-82
2022/09/26 00:02:28;;;;;;;;;;;11.30;99.90;;;;;;5012461;28;19925;-81
2022/09/26 00:04:54;;;;;;;;;;;11.30;99.90;;;;;;5012092;28;19933;-85
2022/09/26 00:07:20;;;;;;;;;;;11.10;99.90;;;;;;5015472;28;19955;-82
2022/09/26 00:09:47;;;;;;;;;;;11.30;99.90;;;;;;5030191;28;20020;-80
2022/09/26 00:12:14;;;;;;;;;;;11.20;99.90;;;;;;5012363;28;19929;-86
2022/09/26 00:14:40;;;;;;;;;;;11.20;99.90;;;;;;5011214;28;19925;-79
2022/09/26 00:17:06;;;;;;;;;;;11.20;99.90;;;;;;5016469;28;19951;-78
2022/09/26 00:19:32;;;;;;;;;;;11.30;99.90;;;;;;5011180;28;19949;-85
2022/09/26 00:21:58;;;;;;;;;;;11.30;99.90;;;;;;5024688;28;19925;-82
2022/09/26 00:24:23;;;;;;;;;;;11.30;99.90;;;;;;5026071;28;19928;-78
2022/09/26 00:26:49;;;;;;;;;;;11.30;99.90;;;;;;5027271;28;19929;-84
2022/09/26 00:29:15;;;;;;;;;;;11.30;99.90;;;;;;5011168;28;19932;-83
2022/09/26 00:31:43;;;;;;;;;;;11.30;99.90;;;;;;5019968;28;20015;-79
2022/09/26 00:34:12;;;;;;;;;;;11.30;99.90;;;;;;5010631;28;20316;-85
2022/09/26 00:36:38;;;;;;;;;;;11.30;99.90;;;;;;5011756;28;20346;-81
2022/09/26 00:39:08;;;;;;;;;;;11.30;99.90;;;;;;5008215;28;19936;-86
2022/09/26 00:41:34;;;;;;;;;;;11.20;99.90;;;;;;5010808;28;20441;-83
2022/09/26 00:44:00;;;;;;;;;;;11.30;99.90;;;;;;5013987;28;19929;-81
2022/09/26 00:46:29;;;;;;;;;;;11.30;99.90;;;;;;5010907;28;19925;-86
2022/09/26 00:49:15;;;;;;;;;;;11.30;99.90;;;;;;5031320;28;19928;-87
2022/09/26 00:51:42;;;;;;;;;;;11.30;99.90;;;;;;5000015;28;20262;-88
2022/09/26 00:54:10;;;;;;;;;;;11.30;99.90;;;;;;5017463;28;20232;-83
2022/09/26 00:56:36;;;;;;;;;;;11.30;99.90;;;;;;5046732;28;19925;-83
2022/09/26 00:59:25;;;;;;;;;;;11.30;99.90;;;;;;5015583;28;19932;-85
2022/09/26 01:01:52;;;;;;;;;;;11.30;99.90;;;;;;5049559;28;19935;-87
2022/09/26 01:04:18;;;;;;;;;;;11.30;99.90;;;;;;5041141;28;19929;-84
2022/09/26 01:06:44;;;;;;;;;;;11.30;99.90;;;;;;5026895;28;20729;-92
2022/09/26 01:09:11;;;;;;;;;;;11.30;99.90;;;;;;5031909;28;20352;-81
2022/09/26 01:11:39;;;;;;;;;;;11.30;99.90;;;;;;5049536;28;19924;-86
2022/09/26 01:14:08;;;;;;;;;;;11.30;99.90;;;;;;5038111;28;19993;-79
2022/09/26 01:16:36;;;;;;;;;;;11.30;99.90;;;;;;5050326;28;19928;-82
2022/09/26 01:19:04;;;;;;;;;;;11.30;99.90;;;;;;5079006;28;19924;-85
2022/09/26 01:21:41;;;;;;;;;;;11.30;99.90;;;;;;5088469;28;19929;-85
2022/09/26 01:24:22;;;;;;;;;;;11.30;99.90;;;;;;5062232;28;20375;-82
2022/09/26 01:26:54;;;;;;;;;;;11.30;99.90;;;;;;5049152;28;20158;-81
2022/09/26 01:29:32;;;;;;;;;;;11.30;99.90;;;;;;5038492;28;20279;-86
2022/09/26 01:34:58;;;;;;;;;;;11.30;99.90;;;;;;5059056;28;20002;-77
2022/09/26 01:37:41;;;;;;;;;;;11.30;99.90;;;;;;5036988;28;19982;-78
2022/09/26 01:40:09;;;;;;;;;;;11.30;99.90;;;;;;5066305;28;19928;-81
2022/09/26 01:42:41;;;;;;;;;;;11.30;99.90;;;;;;5051102;28;19931;-82
2022/09/26 01:45:12;;;;;;;;;;;11.30;99.90;;;;;;5053843;28;19967;-82
2022/09/26 01:47:38;;;;;;;;;;;11.30;99.90;;;;;;5052833;28;21132;-81
2022/09/26 01:50:15;;;;;;;;;;;11.30;99.90;;;;;;5061043;28;20008;-77
2022/09/26 01:52:53;;;;;;;;;;;11.30;99.90;;;;;;5038434;28;19925;-78
2022/09/26 01:55:38;;;;;;;;;;;11.30;99.90;;;;;;5028806;28;20419;-80
2022/09/26 01:58:08;;;;;;;;;;;11.30;99.90;;;;;;5043712;28;19925;-81
2022/09/26 02:00:35;;;;;;;;;;;11.30;99.90;;;;;;5061802;28;19929;-80
2022/09/26 02:03:02;;;;;;;;;;;11.20;99.90;;;;;;5018468;28;19932;-82
2022/09/26 02:08:56;;;;;;;;;;;11.30;99.90;;;;;;5258603;22;19935;-78
2022/09/26 02:11:24;;;;;;;;;;;11.30;99.90;;;;;;5070108;28;20306;-78
2022/09/26 02:13:56;;;;;;;;;;;11.30;99.90;;;;;;5053228;28;19935;-81
2022/09/26 02:16:27;;;;;;;;;;;11.20;99.90;;;;;;5055269;28;19967;-77
2022/09/26 02:18:56;;;;;;;;;;;11.20;99.90;;;;;;5081530;28;20425;-78
2022/09/26 02:21:23;;;;;;;;;;;11.30;99.90;;;;;;5070098;28;19931;-80
2022/09/26 02:23:50;;;;;;;;;;;11.20;99.90;;;;;;5059477;28;19924;-78
2022/09/26 02:26:16;;;;;;;;;;;11.20;99.90;;;;;;5051005;28;19975;-78
2022/09/26 02:28:42;;;;;;;;;;;11.20;99.90;;;;;;5058325;28;19959;-76
2022/09/26 02:31:09;;;;;;;;;;;10.90;99.90;;;;;;5036337;28;19943;-78
2022/09/26 02:33:35;;;;;;;;;;;11.20;99.90;;;;;;5053729;28;20357;-75
2022/09/26 02:36:07;;;;;;;;;;;11.20;99.90;;;;;;5048901;28;19924;-77
2022/09/26 02:38:33;;;;;;;;;;;11.20;99.90;;;;;;5062414;28;19985;-80
2022/09/26 02:41:10;;;;;;;;;;;11.20;99.90;;;;;;5049634;28;20370;-79
2022/09/26 02:43:47;;;;;;;;;;;11.20;99.90;;;;;;5049730;28;20022;-78
2022/09/26 02:46:28;;;;;;;;;;;11.20;99.90;;;;;;5070793;28;19924;-77
2022/09/26 02:49:13;;;;;;;;;;;11.20;99.90;;;;;;5066164;28;19928;-78
2022/09/26 02:51:49;;;;;;;;;;;11.20;99.90;;;;;;5046062;28;19928;-77
2022/09/26 02:54:18;;;;;;;;;;;11.20;99.90;;;;;;5080080;28;19936;-76
2022/09/26 02:56:54;;;;;;;;;;;11.10;99.90;;;;;;5052848;28;19924;-76
2022/09/26 02:59:28;;;;;;;;;;;11.10;99.90;;;;;;5068108;28;19928;-77
2022/09/26 03:01:55;;;;;;;;;;;11.10;99.90;;;;;;5049492;28;21105;-79
2022/09/26 03:04:30;;;;;;;;;;;11.10;99.90;;;;;;5044999;28;20401;-83
2022/09/26 03:06:59;;;;;;;;;;;11.10;99.90;;;;;;5069361;28;19924;-78
2022/09/26 03:09:26;;;;;;;;;;;11.10;99.90;;;;;;5073611;28;19935;-78
2022/09/26 03:11:52;;;;;;;;;;;11.00;99.90;;;;;;5068043;28;20012;-85
2022/09/26 03:14:20;;;;;;;;;;;11.00;99.90;;;;;;5034039;28;19928;-77
2022/09/26 03:16:46;;;;;;;;;;;11.00;99.90;;;;;;5051835;28;19932;-85
2022/09/26 03:19:25;;;;;;;;;;;11.00;99.90;;;;;;5053118;28;19928;-77
2022/09/26 03:21:53;;;;;;;;;;;10.90;99.90;;;;;;5051980;28;19939;-83
2022/09/26 03:24:21;;;;;;;;;;;10.90;99.90;;;;;;5070694;28;19985;-78
2022/09/26 03:26:50;;;;;;;;;;;10.90;99.90;;;;;;5051048;28;20010;-79
2022/09/26 03:29:18;;;;;;;;;;;10.90;99.90;;;;;;5070190;28;20426;-76
2022/09/26 03:31:44;;;;;;;;;;;10.90;99.90;;;;;;5052790;28;20415;-77
2022/09/26 03:34:12;;;;;;;;;;;10.90;99.90;;;;;;5071043;28;19931;-86
2022/09/26 03:36:38;;;;;;;;;;;10.90;99.90;;;;;;5036904;28;20027;-76
2022/09/26 03:39:04;;;;;;;;;;;10.90;99.90;;;;;;5035872;28;20476;-86
2022/09/26 03:41:31;;;;;;;;;;;10.90;99.90;;;;;;5054277;28;19990;-77
2022/09/26 03:43:58;;;;;;;;;;;10.90;99.90;;;;;;5055709;28;20077;-86
2022/09/26 03:46:30;;;;;;;;;;;10.90;99.90;;;;;;5045970;28;19977;-75
2022/09/26 03:48:57;;;;;;;;;;;10.90;99.90;;;;;;5051796;28;19967;-75
2022/09/26 03:51:22;;;;;;;;;;;10.80;99.90;;;;;;5054346;28;20490;-81
2022/09/26 03:53:49;;;;;;;;;;;10.90;99.90;;;;;;5071983;28;19935;-82
2022/09/26 03:56:34;;;;;;;;;;;10.90;99.90;;;;;;5039031;28;20022;-80
2022/09/26 03:59:00;;;;;;;;;;;10.80;99.90;;;;;;5069073;28;19973;-77
2022/09/26 04:01:27;;;;;;;;;;;10.90;99.90;;;;;;5068508;28;19928;-78
2022/09/26 04:03:53;;;;;;;;;;;10.80;99.90;;;;;;5068324;28;19974;-77
2022/09/26 04:06:19;;;;;;;;;;;10.80;99.90;;;;;;5039241;28;19975;-77
2022/09/26 04:08:46;;;;;;;;;;;10.90;99.90;;;;;;5049677;28;19929;-79
2022/09/26 04:11:13;;;;;;;;;;;10.80;99.90;;;;;;5050939;28;20016;-77
2022/09/26 04:13:40;;;;;;;;;;;10.80;99.90;;;;;;5060934;28;19985;-75
2022/09/26 04:16:06;;;;;;;;;;;10.90;99.90;;;;;;5041952;28;20395;-74
2022/09/26 04:18:33;;;;;;;;;;;10.90;99.90;;;;;;5067934;28;19924;-75
2022/09/26 04:21:00;;;;;;;;;;;10.90;99.90;;;;;;5052270;28;19935;-77
2022/09/26 04:23:26;;;;;;;;;;;10.80;99.90;;;;;;5066574;28;19924;-77
2022/09/26 04:25:52;;;;;;;;;;;10.80;99.90;;;;;;5048248;28;20371;-77
2022/09/26 04:28:18;;;;;;;;;;;10.90;99.90;;;;;;5050911;28;20007;-77
2022/09/26 04:30:44;;;;;;;;;;;10.90;99.90;;;;;;5034912;28;20019;-75
2022/09/26 04:33:09;;;;;;;;;;;10.80;99.90;;;;;;5084628;28;19942;-79
2022/09/26 04:35:35;;;;;;;;;;;10.80;99.90;;;;;;5047866;28;19954;-77
2022/09/26 04:38:01;;;;;;;;;;;10.80;99.90;;;;;;5045515;28;19928;-79
2022/09/26 04:40:27;;;;;;;;;;;10.80;99.90;;;;;;5036606;28;19928;-77
2022/09/26 04:42:53;;;;;;;;;;;10.80;99.90;;;;;;5050784;28;19928;-78
2022/09/26 04:45:19;;;;;;;;;;;10.80;99.90;;;;;;5033585;28;19924;-76
2022/09/26 04:47:46;;;;;;;;;;;10.80;99.90;;;;;;5051354;28;19931;-81
2022/09/26 04:50:12;;;;;;;;;;;10.80;99.90;;;;;;5057403;28;20038;-78
2022/09/26 04:52:37;;;;;;;;;;;10.80;99.90;;;;;;5050589;28;20058;-76
2022/09/26 04:55:04;;;;;;;;;;;10.60;99.90;;;;;;5050599;28;19924;-76
2022/09/26 04:57:30;;;;;;;;;;;10.80;99.90;;;;;;5034404;28;19955;-78
2022/09/26 04:59:56;;;;;;;;;;;10.80;99.90;;;;;;5050309;28;19924;-76
2022/09/26 05:02:22;;;;;;;;;;;10.80;99.90;;;;;;5034281;28;20433;-76
2022/09/26 05:04:48;;;;;;;;;;;10.80;99.90;;;;;;5039386;28;19934;-75
2022/09/26 05:07:17;;;;;;;;;;;10.80;99.90;;;;;;5046907;28;19924;-76
2022/09/26 05:09:43;;;;;;;;;;;10.70;99.90;;;;;;5063527;28;20533;-81
2022/09/26 05:12:11;;;;;;;;;;;10.70;99.90;;;;;;5048254;28;19939;-75
2022/09/26 05:14:37;;;;;;;;;;;10.80;99.90;;;;;;5062552;28;19931;-78
2022/09/26 05:17:03;;;;;;;;;;;10.70;99.90;;;;;;5065545;28;19924;-78
2022/09/26 05:19:29;;;;;;;;;;;10.70;99.90;;;;;;5049771;28;20580;-80
2022/09/26 05:21:57;;;;;;;;;;;10.70;99.90;;;;;;5032309;28;20477;-75
2022/09/26 05:27:07;;;;;;;;;;;10.70;99.90;;;;;;5064239;28;19984;-78
2022/09/26 05:29:33;;;;;;;;;;;10.70;99.90;;;;;;5040894;28;19932;-77
2022/09/26 05:32:00;;;;;;;;;;;10.70;99.90;;;;;;5045939;28;20015;-77
2022/09/26 05:34:26;;;;;;;;;;;10.70;99.90;;;;;;5064499;28;19942;-79
2022/09/26 05:36:54;;;;;;;;;;;10.70;99.90;;;;;;5065003;28;19928;-81
2022/09/26 05:42:08;;;;;;;;;;;10.70;99.90;;;;;;5065318;28;19963;-77
2022/09/26 05:44:33;;;;;;;;;;;10.70;99.90;;;;;;5049479;28;20006;-76
2022/09/26 05:47:00;;;;;;;;;;;10.70;99.90;;;;;;5050129;28;20744;-79
2022/09/26 05:49:26;;;;;;;;;;;11.30;99.90;;;;;;5047690;28;20685;-78
2022/09/26 05:51:56;;;;;;;;;;;10.70;99.90;;;;;;5060627;28;19932;-80
2022/09/26 05:54:22;;;;;;;;;;;10.70;99.90;;;;;;5062910;28;19924;-77
2022/09/26 05:56:48;;;;;;;;;;;10.70;99.90;;;;;;5046959;28;19932;-79
2022/09/26 05:59:14;;;;;;;;;;;10.60;99.90;;;;;;5060621;28;19928;-78
2022/09/26 06:01:46;;;;;;;;;;;10.70;99.90;;;;;;5049097;28;20413;-78
2022/09/26 06:04:12;;;;;;;;;;;10.70;99.90;;;;;;5065645;28;20031;-78
2022/09/26 06:06:37;;;;;;;;;;;10.60;99.90;;;;;;5050119;28;20003;-80
2022/09/26 06:09:05;;;;;;;;;;;10.70;99.90;;;;;;5083762;28;19984;-80
2022/09/26 06:11:31;;;;;;;;;;;10.60;99.90;;;;;;5033847;28;20027;-82
2022/09/26 06:13:59;;;;;;;;;;;10.60;99.90;;;;;;5045677;28;19982;-79
2022/09/26 06:16:25;;;;;;;;;;;10.60;99.90;;;;;;5068743;28;19927;-84
2022/09/26 06:18:52;;;;;;;;;;;10.60;99.90;;;;;;5069614;28;19924;-79
2022/09/26 06:21:18;;;;;;;;;;;11.30;99.90;;;;;;5053591;28;20437;-77
2022/09/26 06:23:44;;;;;;;;;;;10.60;99.90;;;;;;5036724;28;19928;-76
2022/09/26 06:26:13;;;;;;;;;;;10.60;99.90;;;;;;5051225;28;19981;-77
2022/09/26 06:28:39;;;;;;;;;;;10.60;99.90;;;;;;5069098;28;19939;-80
2022/09/26 06:31:12;;;;;;;;;;;10.60;99.90;;;;;;5045830;28;19996;-80
2022/09/26 06:33:37;;;;;;;;;;;10.60;99.90;;;;;;5048688;28;19972;-80
2022/09/26 06:36:04;;;;;;;;;;;10.50;99.90;;;;;;5029881;28;19928;-79
2022/09/26 06:38:30;;;;;;;;;;;10.60;99.90;;;;;;5072032;28;19931;-84
2022/09/26 06:40:56;;;;;;;;;;;10.50;99.90;;;;;;5044515;28;19924;-87
2022/09/26 06:46:43;;;;;;;;;;;10.50;99.90;;;;;;5065117;28;19925;-89
2022/09/26 06:56:14;;;;;;;;;;;10.00;99.90;;;;;;5069702;28;19991;-82
2022/09/26 07:02:02;;;;;;;;;;;10.50;99.90;;;;;;5091320;28;19937;-83
2022/09/26 07:04:51;;;;;;;;;;;10.40;99.90;;;;;;5073655;28;19928;-83
2022/09/26 07:10:46;;;;;;;;;;;9.80;99.90;;;;;;5080524;28;20621;-86
2022/09/26 07:13:35;;;;;;;;;;;10.40;99.90;;;;;;5040737;28;19924;-85
2022/09/26 07:16:25;;;;;;;;;;;10.40;99.90;;;;;;5075964;28;19962;-82
2022/09/26 07:19:10;;;;;;;;;;;10.40;99.90;;;;;;5051798;28;20035;-85
2022/09/26 07:21:39;;;;;;;;;;;10.40;99.90;;;;;;5032763;28;20058;-83
2022/09/26 07:24:14;;;;;;;;;;;10.10;99.90;;;;;;5377241;23;20100;-82
2022/09/26 07:26:41;;;;;;;;;;;10.40;99.90;;;;;;5017528;28;20145;-83
2022/09/26 07:29:07;;;;;;;;;;;10.50;99.90;;;;;;5010886;28;19971;-83
2022/09/26 07:31:33;;;;;;;;;;;10.50;99.90;;;;;;5029166;28;19929;-83
2022/09/26 07:33:59;;;;;;;;;;;10.60;99.90;;;;;;5039144;28;20010;-83
2022/09/26 07:37:15;;;;;;;;;;;10.50;99.90;;;;;;5006835;28;19933;-80
2022/09/26 07:40:04;;;;;;;;;;;10.60;99.90;;;;;;5046834;28;20322;-82
2022/09/26 07:42:37;;;;;;;;;;;10.50;99.90;;;;;;5014573;28;20471;-81
2022/09/26 07:50:09;;;;;;;;;;;10.70;99.90;;;;;;5030506;28;20450;-82
2022/09/26 07:51:31;;;;;;;;;;;10.50;99.90;;;;;;5003679;28;19968;-84
2022/09/26 07:54:06;;;;;;;;;;;10.60;99.90;;;;;;5012201;28;20382;-83
2022/09/26 07:56:42;;;;;;;;;;;10.60;99.90;;;;;;5012346;28;19986;-82
2022/09/26 07:59:08;;;;;;;;;;;10.50;99.90;;;;;;5001298;28;19929;-85
2022/09/26 08:02:12;;;;;;;;;;;10.50;99.90;;;;;;5010511;28;20015;-85
2022/09/26 08:14:55;;;;;;;;;;;10.60;99.90;;;;;;5047352;28;19921;-88
2022/09/26 08:17:40;;;;;;;;;;;10.70;99.90;;;;;;5015616;28;19925;-86
2022/09/26 08:20:25;;;;;;;;;;;10.70;99.90;;;;;;5031177;28;20460;-85
2022/09/26 08:22:54;;;;;;;;;;;10.70;99.90;;;;;;5014936;28;20445;-86
2022/09/26 08:25:19;;;;;;;;;;;10.80;99.90;;;;;;5009445;28;19936;-84
2022/09/26 08:27:47;;;;;;;;;;;10.80;99.90;;;;;;5017798;28;19928;-84
2022/09/26 08:30:14;;;;;;;;;;;10.80;99.90;;;;;;5034936;28;19956;-83
2022/09/26 08:32:40;;;;;;;;;;;10.90;99.90;;;;;;5045178;28;19928;-87
2022/09/26 08:35:06;;;;;;;;;;;10.90;99.90;;;;;;5067028;28;20026;-88
2022/09/26 08:37:35;;;;;;;;;;;10.90;99.90;;;;;;5061723;28;20044;-86
2022/09/26 08:40:03;;;;;;;;;;;10.90;99.90;;;;;;5033191;28;19992;-87
2022/09/26 08:42:43;;;;;;;;;;;10.90;99.90;;;;;;5031168;28;19930;-84
2022/09/26 08:55:09;;;;;;;;;;;10.90;99.90;;;;;;5008020;28;19941;-87
2022/09/26 09:01:32;;;;;;;;;;;10.90;99.90;;;;;;5003921;28;20021;-89
2022/09/26 09:04:15;;;;;;;;;;;11.10;99.90;;;;;;4958754;28;20401;-87
2022/09/26 09:09:43;;;;;;;;;;;10.50;99.90;;;;;;5005558;28;20061;-83
2022/09/26 09:12:15;;;;;;;;;;;10.50;99.90;;;;;;5011054;28;20398;-87
2022/09/26 09:14:50;;;;;;;;;;;11.00;99.90;;;;;;5012205;28;19944;-92
2022/09/26 09:17:24;;;;;;;;;;;11.00;99.90;;;;;;4990016;28;19925;-85
2022/09/26 09:31:16;;;;;;;;;;;11.40;99.90;;;;;;5007512;28;20037;-83
2022/09/26 09:36:58;;;;;;;;;;;11.20;99.90;;;;;;5000522;28;20000;-84
2022/09/26 09:39:30;;;;;;;;;;;11.20;99.90;;;;;;4988813;28;20115;-88
2022/09/26 09:41:59;;;;;;;;;;;11.20;99.90;;;;;;4985651;28;20384;-86
2022/09/26 09:44:33;;;;;;;;;;;11.20;99.90;;;;;;4972860;28;19925;-92
2022/09/26 09:46:59;;;;;;;;;;;11.20;99.90;;;;;;5008424;28;20024;-85
2022/09/26 09:49:25;;;;;;;;;;;11.20;99.90;;;;;;5034934;28;20007;-90
2022/09/26 09:52:18;;;;;;;;;;;11.20;99.90;;;;;;5039771;28;20310;-86
2022/09/26 09:54:47;;;;;;;;;;;11.30;99.90;;;;;;5036945;28;19924;-86
2022/09/26 09:57:19;;;;;;;;;;;11.30;99.90;;;;;;5051705;28;19928;-86
2022/09/26 09:59:51;;;;;;;;;;;11.30;99.90;;;;;;5029044;28;19932;-86
2022/09/26 10:02:22;;;;;;;;;;;11.30;99.90;;;;;;5028266;28;20192;-88
2022/09/26 10:05:00;;;;;;;;;;;11.30;99.90;;;;;;5013493;28;19925;-88
2022/09/26 10:07:26;;;;;;;;;;;11.30;99.90;;;;;;5015938;28;19925;-85
2022/09/26 10:09:52;;;;;;;;;;;11.30;99.90;;;;;;5031242;28;19947;-83
2022/09/26 10:19:06;;;;;;;;;;;11.30;99.90;;;;;;5020471;28;19928;-86
2022/09/26 10:21:44;;;;;;;;;;;11.20;99.90;;;;;;5031808;28;20477;-83
2022/09/26 10:24:33;;;;;;;;;;;11.30;99.90;;;;;;5016215;28;19936;-84
2022/09/26 10:27:15;;;;;;;;;;;11.30;99.90;;;;;;5045861;28;19928;-89
2022/09/26 10:29:42;;;;;;;;;;;11.40;99.90;;;;;;5065061;28;19932;-86
2022/09/26 10:32:09;;;;;;;;;;;11.40;99.90;;;;;;5067152;28;20402;-85
2022/09/26 10:34:37;;;;;;;;;;;11.90;99.90;;;;;;5072299;28;19929;-89
2022/09/26 10:37:21;;;;;;;;;;;11.40;99.90;;;;;;5056017;28;19951;-85
2022/09/26 10:42:54;;;;;;;;;;;11.50;99.90;;;;;;5066740;28;19928;-84
2022/09/26 10:48:53;;;;;;;;;;;11.60;99.90;;;;;;5063879;28;20287;-81
2022/09/26 10:51:19;;;;;;;;;;;11.60;99.90;;;;;;5031347;28;19968;-85
2022/09/26 10:53:47;;;;;;;;;;;11.60;99.90;;;;;;5067849;28;20218;-81
2022/09/26 10:56:24;;;;;;;;;;;11.60;99.90;;;;;;5058814;28;19937;-85
2022/09/26 10:58:56;;;;;;;;;;;11.60;99.90;;;;;;5097946;28;20335;-81
2022/09/26 11:01:25;;;;;;;;;;;11.60;99.90;;;;;;5051195;28;19932;-83
2022/09/26 11:03:54;;;;;;;;;;;11.50;99.90;;;;;;5066172;28;19940;-83
2022/09/26 11:06:25;;;;;;;;;;;11.50;99.90;;;;;;5070616;28;19969;-85
2022/09/26 11:08:53;;;;;;;;;;;11.50;99.90;;;;;;5047607;28;19928;-84
2022/09/26 11:11:21;;;;;;;;;;;11.50;99.90;;;;;;5066147;28;20146;-84
2022/09/26 11:14:02;;;;;;;;;;;11.50;99.90;;;;;;5070128;28;20016;-80
2022/09/26 11:16:43;;;;;;;;;;;11.50;99.90;;;;;;5063255;28;19928;-84
2022/09/26 11:19:21;;;;;;;;;;;11.50;99.90;;;;;;5064128;28;20414;-83
2022/09/26 11:22:16;;;;;;;;;;;11.40;99.90;;;;;;5047831;28;19924;-83
2022/09/26 11:24:49;;;;;;;;;;;11.40;99.90;;;;;;5049733;28;20019;-84
2022/09/26 11:27:30;;;;;;;;;;;11.40;99.90;;;;;;5064693;28;19935;-83
2022/09/26 11:29:59;;;;;;;;;;;11.40;99.90;;;;;;5046143;28;19928;-85
2022/09/26 11:32:27;;;;;;;;;;;11.40;99.90;;;;;;5068416;28;19936;-83
2022/09/26 11:34:53;;;;;;;;;;;11.40;99.90;;;;;;5049330;28;20302;-86
2022/09/26 11:37:40;;;;;;;;;;;11.40;99.90;;;;;;5052467;28;19925;-84
2022/09/26 11:40:08;;;;;;;;;;;11.40;99.90;;;;;;5048061;28;20019;-86
2022/09/26 11:42:59;;;;;;;;;;;11.40;99.90;;;;;;5064116;28;20007;-86
2022/09/26 11:46:02;;;;;;;;;;;11.50;99.90;;;;;;5047782;28;19932;-89
2022/09/26 11:48:37;;;;;;;;;;;11.40;99.90;;;;;;4969021;28;20084;-84
2022/09/26 11:51:07;;;;;;;;;;;11.50;99.90;;;;;;5042041;28;20253;-81
2022/09/26 11:53:44;;;;;;;;;;;11.50;99.90;;;;;;5053107;28;20316;-84
2022/09/26 11:56:14;;;;;;;;;;;11.50;99.90;;;;;;5049636;28;20366;-81
2022/09/26 11:58:42;;;;;;;;;;;11.40;99.90;;;;;;5048853;28;19939;-83
2022/09/26 12:01:14;;;;;;;;;;;11.50;99.90;;;;;;5050612;28;20302;-90
2022/09/26 12:04:20;;;;;;;;;;;11.50;99.90;;;;;;5062141;28;20011;-84
2022/09/26 12:07:06;;;;;;;;;;;11.50;99.90;;;;;;4997847;28;19983;-82
2022/09/26 12:09:35;;;;;;;;;;;11.70;99.90;;;;;;4991614;28;20466;-85
2022/09/26 12:12:13;;;;;;;;;;;11.50;99.90;;;;;;5033474;28;20399;-82
2022/09/26 12:15:07;;;;;;;;;;;11.50;99.90;;;;;;5066563;28;20121;-80
2022/09/26 12:17:36;;;;;;;;;;;11.60;99.90;;;;;;5069782;28;19936;-85
2022/09/26 12:20:05;;;;;;;;;;;11.60;99.90;;;;;;5061312;28;20337;-85
2022/09/26 12:22:40;;;;;;;;;;;11.60;99.90;;;;;;5061380;28;20321;-85
2022/09/26 12:26:00;;;;;;;;;;;11.70;99.90;;;;;;5063717;28;20398;-83
2022/09/26 12:32:06;;;;;;;;;;;11.70;99.90;;;;;;5064781;28;20006;-83
2022/09/26 12:34:44;;;;;;;;;;;11.80;99.90;;;;;;5063572;28;20015;-81
2022/09/26 12:37:31;;;;;;;;;;;11.70;99.90;;;;;;5043762;28;19955;-85
2022/09/26 12:40:15;;;;;;;;;;;11.70;99.90;;;;;;5055356;28;20023;-82
2022/09/26 12:42:50;;;;;;;;;;;11.80;99.90;;;;;;5046522;28;19925;-85
2022/09/26 12:45:23;;;;;;;;;;;11.80;99.90;;;;;;5043774;28;20402;-87
2022/09/26 12:47:59;;;;;;;;;;;11.80;99.90;;;;;;5063772;28;19986;-83
2022/09/26 12:50:28;;;;;;;;;;;11.90;99.90;;;;;;5062035;28;19979;-85
2022/09/26 12:52:56;;;;;;;;;;;11.90;99.90;;;;;;5047926;28;19962;-86
2022/09/26 12:55:31;;;;;;;;;;;11.90;99.90;;;;;;5064311;28;19935;-83
2022/09/26 12:58:18;;;;;;;;;;;12.00;99.90;;;;;;5043062;28;19924;-86
2022/09/26 13:00:57;;;;;;;;;;;12.00;99.90;;;;;;5064685;28;19978;-83
2022/09/26 13:03:23;;;;;;;;;;;12.00;99.90;;;;;;5048661;28;19921;-86
2022/09/26 13:06:11;;;;;;;;;;;12.00;99.90;;;;;;5051853;28;20397;-83
2022/09/26 13:08:56;;;;;;;;;;;12.00;99.90;;;;;;5067846;28;19971;-81
2022/09/26 13:11:30;;;;;;;;;;;12.00;99.90;;;;;;5057027;28;19939;-80
2022/09/26 13:13:56;;;;;;;;;;;12.10;99.90;;;;;;5074323;28;19925;-85
2022/09/26 13:16:32;;;;;;;;;;;12.10;99.90;;;;;;5064676;28;20031;-83
2022/09/26 13:19:26;;;;;;;;;;;12.20;99.90;;;;;;5054082;28;20537;-83
2022/09/26 13:22:03;;;;;;;;;;;12.20;99.90;;;;;;5057378;28;19924;-83
2022/09/26 13:24:39;;;;;;;;;;;12.30;99.90;;;;;;5056500;28;19935;-84
2022/09/26 13:27:19;;;;;;;;;;;12.30;99.90;;;;;;5053711;28;19974;-85
2022/09/26 13:29:48;;;;;;;;;;;12.40;99.90;;;;;;5068502;28;19924;-86
2022/09/26 13:32:22;;;;;;;;;;;12.40;99.90;;;;;;5062110;28;19982;-87
2022/09/26 13:34:54;;;;;;;;;;;12.40;99.90;;;;;;5050615;28;19932;-86
2022/09/26 13:37:39;;;;;;;;;;;12.40;99.90;;;;;;5052999;28;19925;-89
2022/09/26 13:40:09;;;;;;;;;;;12.50;99.90;;;;;;5067171;28;19928;-86
2022/09/26 13:42:44;;;;;;;;;;;12.50;99.90;;;;;;5070428;28;19928;-83
2022/09/26 13:45:27;;;;;;;;;;;12.50;99.90;;;;;;5071070;28;19935;-84
2022/09/26 13:48:05;;;;;;;;;;;12.60;99.90;;;;;;5052885;28;19965;-84
2022/09/26 13:50:47;;;;;;;;;;;12.60;99.90;;;;;;5065534;28;19932;-82
2022/09/26 13:53:33;;;;;;;;;;;12.60;99.90;;;;;;5066782;28;19924;-82
2022/09/26 13:56:18;;;;;;;;;;;12.60;99.90;;;;;;5066260;28;19931;-84
2022/09/26 13:59:03;;;;;;;;;;;12.70;99.90;;;;;;5072728;28;19928;-82
2022/09/26 14:01:31;;;;;;;;;;;12.70;99.90;;;;;;5065456;28;19932;-85
2022/09/26 14:04:17;;;;;;;;;;;12.30;99.90;;;;;;5034934;28;20340;-82
2022/09/26 14:07:02;;;;;;;;;;;12.70;99.90;;;;;;5070208;28;19924;-82
2022/09/26 14:09:57;;;;;;;;;;;12.70;99.90;;;;;;5066482;28;19932;-84
2022/09/26 14:13:07;;;;;;;;;;;12.90;99.90;;;;;;5070601;28;19932;-84
2022/09/26 14:15:57;;;;;;;;;;;12.90;99.90;;;;;;5067960;28;19925;-83
2022/09/26 14:18:23;;;;;;;;;;;13.00;99.90;;;;;;5072190;28;19959;-79
2022/09/26 14:21:27;;;;;;;;;;;13.00;99.90;;;;;;5051938;28;20547;-78
2022/09/26 14:24:12;;;;;;;;;;;13.00;99.90;;;;;;4970306;28;19926;-80
2022/09/26 14:26:42;;;;;;;;;;;12.90;99.90;;;;;;5076699;28;19933;-77
2022/09/26 14:29:27;;;;;;;;;;;12.90;99.90;;;;;;5074100;28;19982;-79
2022/09/26 14:32:00;;;;;;;;;;;13.00;99.90;;;;;;5063612;28;19924;-80
2022/09/26 14:34:27;;;;;;;;;;;13.10;99.90;;;;;;5049161;28;20287;-79
2022/09/26 14:36:54;;;;;;;;;;;13.10;99.90;;;;;;5056847;28;19928;-81
2022/09/26 14:39:26;;;;;;;;;;;13.10;99.90;;;;;;5031618;28;19933;-84
2022/09/26 14:44:33;;;;;;;;;;;13.10;99.90;;;;;;5059838;28;19928;-77
2022/09/26 14:47:03;;;;;;;;;;;13.00;99.90;;;;;;5057779;28;19932;-79
2022/09/26 14:49:28;;;;;;;;;;;13.10;99.90;;;;;;5031104;28;20520;-78
2022/09/26 14:51:58;;;;;;;;;;;13.10;99.90;;;;;;5041670;28;19972;-79
2022/09/26 14:54:38;;;;;;;;;;;13.10;99.90;;;;;;5055506;28;20509;-77
2022/09/26 14:57:17;;;;;;;;;;;13.00;99.90;;;;;;5040819;28;20426;-79
2022/09/26 14:59:43;;;;;;;;;;;13.10;99.90;;;;;;5047599;28;19929;-80
2022/09/26 15:02:09;;;;;;;;;;;13.10;99.90;;;;;;5046733;28;21298;-77
2022/09/26 15:04:35;;;;;;;;;;;13.10;99.90;;;;;;5058092;28;20397;-79
2022/09/26 15:07:02;;;;;;;;;;;13.10;99.90;;;;;;5042119;28;20654;-78
2022/09/26 15:09:37;;;;;;;;;;;13.10;99.90;;;;;;5043644;28;19932;-79
2022/09/26 15:12:07;;;;;;;;;;;13.10;99.90;;;;;;5045354;28;19947;-77
2022/09/26 15:14:38;;;;;;;;;;;13.10;99.90;;;;;;5074147;28;20455;-77
2022/09/26 15:17:05;;;;;;;;;;;13.10;99.90;;;;;;5052558;28;20016;-78
2022/09/26 15:19:33;;;;;;;;;;;13.10;99.90;;;;;;5011257;28;19933;-78
2022/09/26 15:22:00;;;;;;;;;;;13.10;99.90;;;;;;5037772;28;19981;-79
2022/09/26 15:24:26;;;;;;;;;;;13.10;99.90;;;;;;5024674;28;19925;-78
2022/09/26 15:26:57;;;;;;;;;;;13.10;99.90;;;;;;5050642;28;19929;-79
2022/09/26 15:29:23;;;;;;;;;;;13.10;99.90;;;;;;5039876;28;20268;-77
2022/09/26 15:31:50;;;;;;;;;;;13.10;99.90;;;;;;5056329;28;20031;-79
2022/09/26 15:34:29;;;;;;;;;;;13.10;99.90;;;;;;5028706;28;19943;-78
2022/09/26 15:36:56;;;;;;;;;;;13.10;99.90;;;;;;5073775;28;20023;-79
2022/09/26 15:39:24;;;;;;;;;;;13.10;99.90;;;;;;5040215;28;19932;-79
2022/09/26 15:44:34;;;;;;;;;;;13.10;99.90;;;;;;5055352;28;20354;-80
2022/09/26 15:47:20;;;;;;;;;;;12.80;99.90;;;;;;5046810;28;19938;-80
2022/09/26 15:49:46;;;;;;;;;;;13.00;99.90;;;;;;5055327;28;19988;-77
2022/09/26 15:52:12;;;;;;;;;;;13.00;99.90;;;;;;5029112;28;20339;-78
2022/09/26 15:54:38;;;;;;;;;;;13.00;99.90;;;;;;5006600;28;20395;-78
2022/09/26 15:57:06;;;;;;;;;;;13.00;99.90;;;;;;5038535;28;19951;-78
2022/09/26 15:59:35;;;;;;;;;;;13.00;99.90;;;;;;5017989;28;20298;-80
2022/09/26 16:02:01;;;;;;;;;;;12.90;99.90;;;;;;5038234;28;20476;-80
2022/09/26 16:04:29;;;;;;;;;;;12.90;99.90;;;;;;5037313;28;20409;-77
2022/09/26 16:06:58;;;;;;;;;;;12.90;99.90;;;;;;5041388;28;19929;-77
2022/09/26 16:09:24;;;;;;;;;;;12.80;99.90;;;;;;5059635;28;20063;-79
2022/09/26 16:11:53;;;;;;;;;;;12.80;99.90;;;;;;5057183;28;19932;-80
2022/09/26 16:14:31;;;;;;;;;;;12.80;99.90;;;;;;5073699;28;20374;-79
2022/09/26 16:17:17;;;;;;;;;;;12.80;99.90;;;;;;5034873;28;19966;-79
2022/09/26 16:19:53;;;;;;;;;;;12.70;99.90;;;;;;5014253;28;20015;-82